Time;durP1;ratioP1;P1;durP2;ratioP2;P2;SDS_P1;SDS_P2;PMS_P1;PMS_P2;Temp;Humidity;BMP_temperature;BMP_pressure;BME280_temperature;BME280_humidity;BME280_pressure;Samples;Min_cycle;Max_cycle;Signal;HPM_P1;HPM_P2
2022/05/29 00:00:17;;;;;;;0.00;0.00;;;12.60;99.90;;;;;;5092597;28;20020;-72
2022/05/29 00:02:43;;;;;;;0.00;0.00;;;12.60;99.90;;;;;;5092387;28;20468;-72
2022/05/29 00:05:11;;;;;;;0.00;0.00;;;12.80;99.90;;;;;;5093289;28;20043;-72
2022/05/29 00:07:39;;;;;;;0.00;0.00;;;12.80;99.90;;;;;;5093404;28;20052;-72
2022/05/29 00:10:09;;;;;;;0.00;0.00;;;13.00;99.90;;;;;;5092871;28;20082;-72
2022/05/29 00:12:35;;;;;;;0.10;0.10;;;12.90;99.90;;;;;;5093048;28;20020;-72
2022/05/29 00:15:02;;;;;;;0.00;0.00;;;12.70;99.90;;;;;;5093283;28;20046;-72
2022/05/29 00:17:29;;;;;;;0.00;0.00;;;12.50;99.90;;;;;;5093153;28;20028;-72
2022/05/29 00:19:56;;;;;;;0.00;0.00;;;12.40;99.90;;;;;;5092871;28;20031;-72
2022/05/29 00:22:23;;;;;;;0.00;0.00;;;12.60;99.90;;;;;;5092664;28;20099;-72
2022/05/29 00:24:51;;;;;;;0.00;0.00;;;12.60;99.90;;;;;;5093578;28;20024;-72
2022/05/29 00:27:18;;;;;;;0.10;0.10;;;12.60;99.90;;;;;;5092894;28;20031;-72
2022/05/29 00:29:44;;;;;;;0.98;0.95;;;12.80;99.90;;;;;;5092153;28;20016;-72
2022/05/29 00:32:11;;;;;;;0.47;0.47;;;13.00;99.90;;;;;;5092908;28;20028;-72
2022/05/29 00:34:37;;;;;;;0.00;0.00;;;13.00;99.90;;;;;;5092952;28;20112;-72
2022/05/29 00:37:08;;;;;;;0.00;0.00;;;13.20;99.90;;;;;;5092338;28;20031;-72
2022/05/29 00:39:34;;;;;;;0.00;0.00;;;13.00;99.90;;;;;;5093022;28;20033;-72
2022/05/29 00:42:08;;;;;;;0.00;0.00;;;12.90;99.90;;;;;;5092799;28;20020;-72
2022/05/29 00:44:36;;;;;;;0.00;0.00;;;13.00;99.90;;;;;;5092390;28;20051;-73
2022/05/29 00:47:15;;;;;;;0.00;0.00;;;13.00;99.90;;;;;;5090467;28;20055;-71
2022/05/29 00:49:43;;;;;;;0.00;0.00;;;13.10;99.90;;;;;;5092284;28;20040;-71
2022/05/29 00:52:11;;;;;;;0.00;0.00;;;13.10;99.90;;;;;;5081434;28;20028;-74
2022/05/29 00:54:45;;;;;;;0.00;0.00;;;13.20;99.90;;;;;;5091790;28;20036;-72
2022/05/29 00:57:15;;;;;;;0.00;0.00;;;13.30;99.90;;;;;;5092459;28;20024;-73
2022/05/29 00:59:41;;;;;;;0.00;0.00;;;13.40;99.90;;;;;;5095631;28;20043;-73
2022/05/29 01:02:08;;;;;;;0.00;0.00;;;13.50;99.90;;;;;;5085953;28;20028;-73
2022/05/29 01:04:36;;;;;;;0.00;0.00;;;13.70;99.90;;;;;;5096622;28;20016;-73
2022/05/29 01:07:08;;;;;;;0.00;0.00;;;13.70;99.90;;;;;;5091102;28;20020;-74
2022/05/29 01:09:39;;;;;;;0.00;0.00;;;13.80;99.90;;;;;;5094517;28;20039;-73
2022/05/29 01:12:17;;;;;;;0.00;0.00;;;14.00;99.90;;;;;;5094157;28;20034;-73
2022/05/29 01:14:52;;;;;;;0.00;0.00;;;14.20;99.90;;;;;;5089743;28;20110;-73
2022/05/29 01:17:32;;;;;;;0.00;0.00;;;14.00;99.90;;;;;;5090881;28;20024;-73
2022/05/29 01:20:31;;;;;;;0.00;0.00;;;14.20;99.90;;;;;;5092023;28;20026;-72
2022/05/29 01:23:30;;;;;;;0.00;0.00;;;14.20;99.90;;;;;;5093354;28;20040;-73
2022/05/29 01:26:07;;;;;;;0.00;0.00;;;14.20;99.90;;;;;;5093406;28;20525;-73
2022/05/29 01:28:56;;;;;;;0.15;0.15;;;14.30;99.90;;;;;;5091548;28;20031;-73
2022/05/29 01:31:37;;;;;;;0.00;0.00;;;14.10;99.90;;;;;;5091130;28;20034;-73
2022/05/29 01:34:12;;;;;;;0.00;0.00;;;14.30;99.90;;;;;;5085757;28;20464;-73
2022/05/29 01:36:56;;;;;;;0.00;0.00;;;14.50;99.90;;;;;;5088376;28;20028;-72
2022/05/29 01:39:47;;;;;;;0.00;0.00;;;14.50;99.90;;;;;;5077035;28;20353;-73
2022/05/29 01:42:23;;;;;;;0.00;0.00;;;14.60;99.90;;;;;;5081639;28;20064;-73
2022/05/29 01:45:04;;;;;;;0.00;0.00;;;14.70;99.90;;;;;;5088695;28;20123;-72
2022/05/29 01:48:09;;;;;;;0.00;0.00;;;14.90;99.90;;;;;;5089610;28;20024;-72
2022/05/29 01:50:41;;;;;;;0.00;0.00;;;15.00;99.90;;;;;;5094154;28;20427;-73
2022/05/29 01:53:20;;;;;;;0.00;0.00;;;15.00;99.90;;;;;;5095070;28;20020;-74
2022/05/29 01:55:57;;;;;;;0.00;0.00;;;14.90;99.90;;;;;;5095262;28;20119;-73
2022/05/29 01:58:47;;;;;;;0.00;0.00;;;15.00;99.90;;;;;;5095245;28;20514;-73
2022/05/29 02:01:15;;;;;;;0.00;0.00;;;15.20;99.90;;;;;;5091435;28;20020;-73
2022/05/29 02:03:49;;;;;;;0.00;0.00;;;15.30;99.90;;;;;;5082596;28;20026;-74
2022/05/29 02:06:25;;;;;;;0.00;0.00;;;15.20;99.90;;;;;;5075646;28;20024;-74
2022/05/29 02:09:04;;;;;;;0.00;0.00;;;15.20;99.90;;;;;;5083978;28;20032;-74
2022/05/29 02:11:32;;;;;;;0.00;0.00;;;14.90;99.90;;;;;;5079806;28;20048;-72
2022/05/29 02:14:09;;;;;;;0.00;0.00;;;15.00;99.90;;;;;;5081993;28;20082;-72
2022/05/29 02:16:40;;;;;;;0.00;0.00;;;15.20;99.90;;;;;;5084219;28;20062;-72
2022/05/29 02:19:33;;;;;;;0.00;0.00;;;15.50;99.90;;;;;;5087283;28;20356;-72
2022/05/29 02:22:25;;;;;;;0.00;0.00;;;15.40;99.90;;;;;;5077174;28;20036;-72
2022/05/29 02:25:00;;;;;;;0.00;0.00;;;15.40;99.90;;;;;;5089130;28;20046;-72
2022/05/29 02:27:44;;;;;;;0.00;0.00;;;15.60;99.90;;;;;;5093713;28;20020;-72
2022/05/29 02:30:12;;;;;;;0.00;0.00;;;15.80;99.90;;;;;;5075126;28;20048;-73
2022/05/29 02:33:03;;;;;;;0.00;0.00;;;16.00;99.90;;;;;;5074590;28;20020;-73
2022/05/29 02:35:50;;;;;;;1.02;1.02;;;16.00;99.90;;;;;;5086291;28;20027;-73
2022/05/29 02:38:31;;;;;;;0.63;0.63;;;15.50;99.90;;;;;;5094648;28;20020;-73
2022/05/29 02:41:10;;;;;;;0.03;0.03;;;15.40;99.90;;;;;;5094815;28;20103;-73
2022/05/29 02:44:01;;;;;;;0.00;0.00;;;15.00;99.90;;;;;;5094567;28;20522;-72
2022/05/29 02:46:42;;;;;;;0.00;0.00;;;14.80;99.90;;;;;;5094368;28;20035;-73
2022/05/29 02:49:19;;;;;;;0.63;0.63;;;14.80;99.90;;;;;;5094559;28;20031;-73
2022/05/29 02:51:57;;;;;;;0.00;0.00;;;14.60;99.90;;;;;;5094671;28;20032;-73
2022/05/29 02:54:29;;;;;;;1.10;1.10;;;14.40;99.90;;;;;;5094192;28;20024;-73
2022/05/29 02:56:57;;;;;;;2.88;2.78;;;14.60;99.90;;;;;;5094958;28;20027;-73
2022/05/29 02:59:26;;;;;;;0.77;0.28;;;14.70;99.90;;;;;;5094428;28;20024;-73
2022/05/29 03:02:17;;;;;;;0.13;0.08;;;14.60;99.90;;;;;;5094228;28;20097;-73
2022/05/29 03:05:16;;;;;;;0.00;0.00;;;14.30;99.90;;;;;;5094214;28;20521;-72
2022/05/29 03:07:58;;;;;;;0.00;0.00;;;14.40;99.90;;;;;;5088483;28;20032;-73
2022/05/29 03:10:32;;;;;;;0.00;0.00;;;14.60;99.90;;;;;;5092787;28;20016;-72
2022/05/29 03:13:37;;;;;;;0.00;0.00;;;14.60;99.90;;;;;;5092188;28;20095;-73
2022/05/29 03:16:12;;;;;;;0.00;0.00;;;14.60;99.90;;;;;;5047026;28;20501;-73
2022/05/29 03:19:07;;;;;;;0.00;0.00;;;14.80;99.90;;;;;;5085609;28;20036;-73
2022/05/29 03:21:54;;;;;;;0.00;0.00;;;14.80;99.90;;;;;;5090539;28;20384;-73
2022/05/29 03:24:28;;;;;;;0.00;0.00;;;14.60;99.90;;;;;;5090383;28;20051;-73
2022/05/29 03:27:15;;;;;;;0.10;0.10;;;14.50;99.90;;;;;;5088924;28;20120;-75
2022/05/29 03:29:58;;;;;;;0.00;0.00;;;14.40;99.90;;;;;;5084995;28;20405;-73
2022/05/29 03:32:25;;;;;;;0.00;0.00;;;14.30;99.90;;;;;;5083972;28;20608;-73
2022/05/29 03:34:53;;;;;;;0.38;0.10;;;14.20;99.90;;;;;;5085055;28;20058;-73
2022/05/29 03:37:19;;;;;;;0.00;0.00;;;14.30;99.90;;;;;;5081838;28;20032;-73
2022/05/29 03:39:45;;;;;;;0.10;0.10;;;14.40;99.90;;;;;;5083148;28;20113;-74
2022/05/29 03:42:12;;;;;;;0.00;0.00;;;14.30;99.90;;;;;;5092506;28;20031;-72
2022/05/29 03:44:38;;;;;;;0.00;0.00;;;14.40;99.90;;;;;;5093685;28;20559;-72
2022/05/29 03:47:05;;;;;;;0.00;0.00;;;14.60;99.90;;;;;;5090573;28;20039;-72
2022/05/29 03:49:31;;;;;;;0.00;0.00;;;14.80;99.90;;;;;;5090556;28;20499;-72
2022/05/29 03:51:57;;;;;;;0.00;0.00;;;14.90;99.90;;;;;;5092386;28;20032;-73
2022/05/29 03:54:24;;;;;;;0.03;0.03;;;14.90;99.90;;;;;;5081413;28;20035;-73
2022/05/29 03:56:50;;;;;;;0.00;0.00;;;14.90;99.90;;;;;;5080351;28;20111;-73
2022/05/29 03:59:16;;;;;;;0.00;0.00;;;14.80;99.90;;;;;;5087083;28;20111;-73
2022/05/29 04:01:42;;;;;;;0.00;0.00;;;14.70;99.90;;;;;;5090699;28;20020;-73
2022/05/29 04:04:08;;;;;;;0.00;0.00;;;14.30;99.90;;;;;;5092307;28;20028;-74
2022/05/29 04:06:36;;;;;;;0.00;0.00;;;14.30;99.90;;;;;;5092160;28;20020;-74
2022/05/29 04:12:04;;;;;;;0.00;0.00;;;14.70;99.90;;;;;;5091024;28;20082;-74
2022/05/29 04:14:33;;;;;;;0.00;0.00;;;14.80;99.90;;;;;;5079477;28;20028;-73
2022/05/29 04:16:59;;;;;;;0.00;0.00;;;15.00;99.90;;;;;;5090870;28;20028;-74
2022/05/29 04:19:25;;;;;;;1.08;0.30;;;15.10;99.90;;;;;;5091114;28;20085;-74
2022/05/29 04:21:51;;;;;;;0.00;0.00;;;14.80;99.90;;;;;;5084510;28;20017;-73
2022/05/29 04:24:19;;;;;;;0.10;0.10;;;14.60;99.90;;;;;;5086240;28;20025;-74
2022/05/29 04:26:46;;;;;;;0.38;0.38;;;14.70;99.90;;;;;;5081501;28;20531;-73
2022/05/29 04:29:12;;;;;;;0.20;0.10;;;14.40;99.90;;;;;;5090587;28;20043;-73
2022/05/29 04:31:38;;;;;;;1.52;0.95;;;14.40;99.90;;;;;;5085378;28;20065;-72
2022/05/29 04:34:04;;;;;;;0.00;0.00;;;14.30;99.90;;;;;;5088469;28;20023;-73
2022/05/29 04:36:30;;;;;;;4.75;4.38;;;14.10;99.90;;;;;;5092477;28;20372;-73
2022/05/29 04:38:59;;;;;;;0.00;0.00;;;14.40;99.90;;;;;;5090714;28;20024;-73
2022/05/29 04:41:25;;;;;;;0.00;0.00;;;14.70;99.90;;;;;;5095124;28;20024;-73
2022/05/29 04:43:52;;;;;;;0.00;0.00;;;14.80;99.90;;;;;;5097306;28;20217;-74
2022/05/29 04:46:19;;;;;;;0.00;0.00;;;15.10;99.90;;;;;;5086505;28;20369;-72
2022/05/29 04:48:45;;;;;;;0.00;0.00;;;15.30;99.90;;;;;;5089806;28;20468;-72
2022/05/29 04:51:11;;;;;;;0.00;0.00;;;15.50;99.90;;;;;;5066651;28;20507;-74
2022/05/29 04:53:37;;;;;;;0.10;0.10;;;15.80;99.90;;;;;;5066736;28;20032;-74
2022/05/29 04:56:04;;;;;;;0.03;0.03;;;15.80;99.90;;;;;;5073106;28;20074;-74
2022/05/29 04:58:31;;;;;;;0.00;0.00;;;15.90;99.90;;;;;;5071972;28;20036;-74
2022/05/29 05:00:59;;;;;;;0.00;0.00;;;16.00;99.90;;;;;;5067890;28;20025;-74
2022/05/29 05:03:25;;;;;;;2.50;0.70;;;15.80;99.90;;;;;;5073463;28;20039;-74
2022/05/29 05:05:51;;;;;;;1.90;1.00;;;14.80;99.90;;;;;;5068723;28;20025;-74
2022/05/29 05:08:17;;;;;;;0.32;0.32;;;14.90;99.90;;;;;;5073824;28;20033;-73
2022/05/29 05:10:43;;;;;;;0.25;0.13;;;14.90;99.90;;;;;;5076212;28;20055;-73
2022/05/29 05:13:09;;;;;;;0.10;0.08;;;14.60;99.90;;;;;;5075376;28;20245;-73
2022/05/29 05:15:36;;;;;;;0.00;0.00;;;14.50;99.90;;;;;;5071663;28;20058;-73
2022/05/29 05:18:02;;;;;;;0.00;0.00;;;14.70;99.90;;;;;;5073909;28;20024;-74
2022/05/29 05:20:30;;;;;;;0.00;0.00;;;15.00;99.90;;;;;;5076166;28;20032;-74
2022/05/29 05:22:57;;;;;;;0.60;0.60;;;15.20;99.90;;;;;;5070924;28;20592;-74
2022/05/29 05:25:23;;;;;;;0.00;0.00;;;15.30;99.90;;;;;;5070757;28;20020;-72
2022/05/29 05:27:54;;;;;;;0.65;0.65;;;15.50;99.90;;;;;;5066290;28;20055;-74
2022/05/29 05:30:21;;;;;;;0.88;0.75;;;15.70;99.90;;;;;;5067432;28;20031;-72
2022/05/29 05:32:47;;;;;;;0.00;0.00;;;15.20;99.90;;;;;;5064651;28;20029;-75
2022/05/29 05:35:13;;;;;;;0.00;0.00;;;15.50;99.90;;;;;;5066604;28;20376;-74
2022/05/29 05:37:41;;;;;;;0.00;0.00;;;15.60;99.90;;;;;;5069456;28;20024;-75
2022/05/29 05:40:12;;;;;;;0.00;0.00;;;16.10;99.90;;;;;;5069001;28;20033;-74
2022/05/29 05:42:38;;;;;;;0.40;0.40;;;16.10;99.90;;;;;;5064873;28;20025;-73
2022/05/29 05:45:07;;;;;;;0.00;0.00;;;16.40;99.90;;;;;;5068964;28;20024;-72
2022/05/29 05:47:34;;;;;;;0.00;0.00;;;16.50;99.90;;;;;;5072736;28;20024;-73
2022/05/29 05:50:00;;;;;;;0.00;0.00;;;16.90;99.90;;;;;;5079914;28;20052;-72
2022/05/29 05:52:26;;;;;;;1.35;0.85;;;17.10;99.90;;;;;;5092513;28;20020;-73
2022/05/29 05:54:52;;;;;;;12.52;11.32;;;16.30;99.90;;;;;;5093968;28;20035;-73
2022/05/29 05:57:19;;;;;;;0.13;0.13;;;16.00;99.90;;;;;;5092581;28;20031;-73
2022/05/29 05:59:45;;;;;;;0.00;0.00;;;15.60;99.90;;;;;;5092507;28;20107;-73
2022/05/29 06:02:12;;;;;;;1.55;0.55;;;15.70;99.90;;;;;;5091872;28;20020;-74
2022/05/29 06:04:40;;;;;;;0.00;0.00;;;15.40;99.90;;;;;;5078838;28;20043;-73
2022/05/29 06:07:06;;;;;;;0.00;0.00;;;15.40;99.90;;;;;;5092231;28;20020;-73
2022/05/29 06:09:35;;;;;;;0.00;0.00;;;15.60;99.90;;;;;;5088156;28;20477;-74
2022/05/29 06:12:03;;;;;;;0.25;0.25;;;15.90;99.90;;;;;;5086044;28;20119;-73
2022/05/29 06:14:30;;;;;;;0.00;0.00;;;16.10;99.90;;;;;;5085312;28;20029;-73
2022/05/29 06:16:58;;;;;;;0.17;0.17;;;16.40;99.90;;;;;;5090504;28;20369;-73
2022/05/29 06:19:24;;;;;;;0.00;0.00;;;16.60;99.90;;;;;;5088318;28;20052;-73
2022/05/29 06:21:50;;;;;;;0.00;0.00;;;16.80;99.90;;;;;;5087017;28;20457;-73
2022/05/29 06:24:16;;;;;;;0.00;0.00;;;16.90;99.90;;;;;;5087477;28;20028;-73
2022/05/29 06:26:43;;;;;;;0.00;0.00;;;17.00;99.90;;;;;;5087570;28;20032;-73
2022/05/29 06:29:09;;;;;;;0.00;0.00;;;17.00;99.90;;;;;;5090971;28;20032;-75
2022/05/29 06:31:35;;;;;;;0.00;0.00;;;17.00;99.90;;;;;;5093670;28;20115;-73
2022/05/29 06:34:02;;;;;;;0.05;0.05;;;17.20;99.90;;;;;;5090758;28;20447;-74
2022/05/29 06:36:28;;;;;;;0.40;0.40;;;17.00;99.90;;;;;;5085656;28;20020;-74
2022/05/29 06:38:56;;;;;;;1.35;0.60;;;16.90;99.90;;;;;;5088590;28;20107;-73
2022/05/29 06:41:24;;;;;;;0.00;0.00;;;17.00;99.90;;;;;;5087150;28;20028;-74
2022/05/29 06:43:51;;;;;;;0.10;0.10;;;17.00;99.90;;;;;;5090005;28;20091;-75
2022/05/29 06:46:18;;;;;;;0.00;0.00;;;16.80;99.90;;;;;;5090985;28;20024;-74
2022/05/29 06:48:44;;;;;;;0.52;0.17;;;16.90;99.90;;;;;;5092717;28;20081;-72
2022/05/29 06:51:22;;;;;;;0.60;0.60;;;16.90;99.90;;;;;;5087019;28;20481;-74
2022/05/29 06:53:56;;;;;;;0.85;0.85;;;16.90;99.90;;;;;;5086324;28;20027;-74
2022/05/29 06:56:23;;;;;;;0.00;0.00;;;16.90;99.90;;;;;;5090755;28;20020;-75
2022/05/29 06:58:49;;;;;;;0.20;0.20;;;16.80;99.90;;;;;;5087355;28;20039;-73
2022/05/29 07:07:00;;;;;;;2.28;0.90;;;16.40;99.90;;;;;;5082395;28;20548;-73
2022/05/29 07:09:34;;;;;;;0.57;0.57;;;16.50;99.90;;;;;;5091763;28;20050;-74
2022/05/29 07:12:08;;;;;;;0.22;0.22;;;16.40;99.90;;;;;;5090524;28;20032;-75
2022/05/29 07:14:42;;;;;;;0.55;0.55;;;16.40;99.90;;;;;;5084671;28;20491;-73
2022/05/29 07:17:08;;;;;;;0.95;0.57;;;16.20;99.90;;;;;;5085341;28;20028;-75
2022/05/29 07:19:35;;;;;;;1.00;1.00;;;16.20;99.90;;;;;;5088432;28;20050;-74
2022/05/29 07:22:01;;;;;;;0.05;0.05;;;16.10;99.90;;;;;;5086439;28;20017;-74
2022/05/29 07:24:30;;;;;;;0.00;0.00;;;16.00;99.90;;;;;;5082338;28;20112;-74
2022/05/29 07:26:59;;;;;;;0.00;0.00;;;15.80;99.90;;;;;;5082785;28;20404;-73
2022/05/29 07:29:25;;;;;;;0.50;0.50;;;15.60;99.90;;;;;;5083258;28;20024;-74
2022/05/29 07:31:53;;;;;;;0.00;0.00;;;15.40;99.90;;;;;;5085423;28;20073;-75
2022/05/29 07:34:19;;;;;;;0.00;0.00;;;15.20;99.90;;;;;;5084777;28;20055;-73
2022/05/29 07:36:50;;;;;;;0.03;0.00;;;15.10;99.90;;;;;;5087424;28;20385;-73
2022/05/29 07:39:16;;;;;;;0.00;0.00;;;14.90;99.90;;;;;;5085786;28;20030;-72
2022/05/29 07:44:27;;;;;;;0.17;0.17;;;14.20;99.90;;;;;;5081332;28;20070;-73
2022/05/29 07:46:53;;;;;;;0.00;0.00;;;14.10;99.90;;;;;;5084499;28;20464;-73
2022/05/29 07:49:19;;;;;;;0.32;0.30;;;14.00;99.90;;;;;;5084307;28;20044;-73
2022/05/29 07:51:45;;;;;;;0.00;0.00;;;13.70;99.90;;;;;;5088101;28;20024;-73
2022/05/29 07:54:11;;;;;;;0.00;0.00;;;13.70;99.90;;;;;;5086494;28;20024;-73
2022/05/29 07:56:38;;;;;;;0.38;0.32;;;13.70;99.90;;;;;;5087362;28;20035;-72
2022/05/29 07:59:04;;;;;;;0.10;0.10;;;13.60;99.90;;;;;;5088675;28;20464;-74
2022/05/29 08:01:30;;;;;;;0.00;0.00;;;13.60;99.90;;;;;;5086042;28;20036;-74
2022/05/29 08:03:56;;;;;;;0.00;0.00;;;13.40;99.90;;;;;;5082926;28;20107;-73
2022/05/29 08:06:22;;;;;;;2.25;2.13;;;13.40;99.90;;;;;;5086829;28;20020;-74
2022/05/29 08:08:48;;;;;;;0.77;0.77;;;13.10;99.90;;;;;;5086918;28;20435;-74
2022/05/29 08:11:17;;;;;;;0.00;0.00;;;13.10;99.90;;;;;;5086361;28;20377;-72
2022/05/29 08:13:44;;;;;;;2.55;1.65;;;13.20;99.90;;;;;;5087695;28;20025;-74
2022/05/29 08:16:11;;;;;;;0.00;0.00;;;13.20;99.90;;;;;;5084806;28;20028;-73
2022/05/29 08:18:38;;;;;;;0.00;0.00;;;13.20;99.90;;;;;;5087463;28;20029;-72
2022/05/29 08:21:04;;;;;;;0.45;0.45;;;13.30;99.90;;;;;;5085766;28;20426;-73
2022/05/29 08:23:30;;;;;;;0.00;0.00;;;13.10;99.90;;;;;;5085542;28;20024;-73
2022/05/29 08:31:09;;;;;;;0.00;0.00;;;13.20;99.90;;;;;;5086314;28;20085;-74
2022/05/29 08:33:36;;;;;;;0.00;0.00;;;13.10;99.90;;;;;;5079359;28;20027;-73
2022/05/29 08:36:04;;;;;;;0.10;0.10;;;13.10;99.90;;;;;;5087473;28;20024;-74
2022/05/29 08:38:32;;;;;;;2.00;0.68;;;13.10;99.90;;;;;;5082662;28;20032;-73
2022/05/29 08:41:04;;;;;;;0.00;0.00;;;12.90;99.90;;;;;;5085319;28;20108;-74
2022/05/29 08:44:00;;;;;;;0.13;0.10;;;13.00;99.90;;;;;;5084164;28;20032;-74
2022/05/29 08:46:38;;;;;;;0.98;0.95;;;13.00;99.90;;;;;;5080512;28;20487;-74
2022/05/29 08:49:04;;;;;;;0.30;0.30;;;13.10;99.90;;;;;;5082620;28;20020;-74
2022/05/29 08:52:07;;;;;;;0.00;0.00;;;13.10;99.90;;;;;;5086571;28;20040;-73
2022/05/29 08:55:01;;;;;;;0.00;0.00;;;13.10;99.90;;;;;;5085346;28;20430;-74
2022/05/29 08:57:49;;;;;;;0.00;0.00;;;13.20;99.90;;;;;;5082167;28;20024;-73
2022/05/29 09:00:20;;;;;;;0.00;0.00;;;13.30;99.90;;;;;;5087109;28;20091;-74
2022/05/29 09:03:07;;;;;;;0.20;0.10;;;13.20;99.90;;;;;;5081161;28;20190;-74
2022/05/29 09:06:04;;;;;;;0.00;0.00;;;13.20;99.90;;;;;;5084519;28;20032;-73
2022/05/29 09:08:50;;;;;;;0.00;0.00;;;13.20;99.90;;;;;;5080423;28;20067;-74
2022/05/29 09:11:41;;;;;;;0.00;0.00;;;13.40;99.90;;;;;;5085929;28;20020;-74
2022/05/29 09:14:24;;;;;;;0.10;0.10;;;13.40;99.90;;;;;;5084589;28;20039;-74
2022/05/29 09:17:02;;;;;;;0.03;0.00;;;13.40;99.90;;;;;;5079965;28;20469;-74
2022/05/29 09:19:45;;;;;;;0.00;0.00;;;13.40;99.90;;;;;;5083429;28;20058;-74
2022/05/29 09:22:24;;;;;;;0.00;0.00;;;13.40;99.90;;;;;;5085775;28;20372;-74
2022/05/29 09:24:57;;;;;;;0.00;0.00;;;13.30;99.90;;;;;;5085905;28;20373;-74
2022/05/29 09:27:23;;;;;;;0.05;0.05;;;13.40;99.90;;;;;;5086061;28;20024;-74
2022/05/29 09:29:53;;;;;;;0.00;0.00;;;13.30;99.90;;;;;;5086622;28;20392;-74
2022/05/29 09:32:28;;;;;;;0.00;0.00;;;13.30;99.90;;;;;;5086768;28;20036;-74
2022/05/29 09:35:22;;;;;;;0.00;0.00;;;13.20;99.90;;;;;;5089651;28;20036;-74
2022/05/29 09:38:01;;;;;;;0.15;0.15;;;13.40;99.90;;;;;;5083999;28;20469;-74
2022/05/29 09:40:41;;;;;;;0.17;0.17;;;13.30;99.90;;;;;;5086823;28;20028;-73
2022/05/29 09:43:23;;;;;;;0.08;0.08;;;13.40;99.90;;;;;;5084149;28;20381;-73
2022/05/29 09:45:50;;;;;;;0.10;0.10;;;13.50;99.90;;;;;;5085147;28;20032;-74
2022/05/29 09:51:29;;;;;;;0.00;0.00;;;13.50;99.90;;;;;;5088033;28;20499;-74
2022/05/29 09:53:58;;;;;;;0.00;0.00;;;13.40;99.90;;;;;;5075659;28;20040;-74
2022/05/29 09:56:29;;;;;;;0.00;0.00;;;13.50;99.90;;;;;;5086291;28;20024;-74
2022/05/29 09:59:16;;;;;;;0.00;0.00;;;13.50;99.90;;;;;;5086149;28;20025;-73
2022/05/29 10:01:45;;;;;;;0.22;0.22;;;13.50;99.90;;;;;;5086502;28;20023;-73
2022/05/29 10:04:21;;;;;;;0.00;0.00;;;13.50;99.90;;;;;;5087642;28;20027;-75
2022/05/29 10:06:53;;;;;;;0.10;0.10;;;13.60;99.90;;;;;;5089914;28;20031;-74
2022/05/29 10:09:21;;;;;;;0.00;0.00;;;13.60;99.90;;;;;;5092720;28;20024;-74
2022/05/29 10:12:24;;;;;;;0.00;0.00;;;13.60;99.90;;;;;;5092153;28;20376;-75
2022/05/29 10:15:00;;;;;;;0.00;0.00;;;13.70;99.90;;;;;;5091910;28;20411;-74
2022/05/29 10:17:52;;;;;;;;;;;;;;;;;;;;;
2022/05/29 10:20:55;;;;;;;0.00;0.00;;;13.70;99.90;;;;;;5095159;28;20384;-73
2022/05/29 10:23:35;;;;;;;0.10;0.10;;;13.60;99.90;;;;;;5079219;28;20032;-73
2022/05/29 10:26:27;;;;;;;0.90;0.35;;;13.60;99.90;;;;;;5091353;28;20456;-74
2022/05/29 10:29:21;;;;;;;0.00;0.00;;;13.70;99.90;;;;;;5090269;28;20471;-74
2022/05/29 10:32:00;;;;;;;0.00;0.00;;;13.70;99.90;;;;;;5086720;28;20438;-75
2022/05/29 10:34:40;;;;;;;0.00;0.00;;;13.80;99.90;;;;;;5084255;28;20025;-73
2022/05/29 10:37:42;;;;;;;0.05;0.05;;;13.80;99.90;;;;;;5084941;28;20097;-72
2022/05/29 10:40:40;;;;;;;0.13;0.13;;;13.90;99.90;;;;;;5086333;28;20464;-74
2022/05/29 10:43:09;;;;;;;0.00;0.00;;;13.90;99.90;;;;;;5082568;28;20028;-74
2022/05/29 10:46:05;;;;;;;0.00;0.00;;;13.90;99.90;;;;;;5085259;28;20123;-74
2022/05/29 10:49:10;;;;;;;0.13;0.13;;;13.90;99.90;;;;;;5083491;28;20064;-74
2022/05/29 10:52:17;;;;;;;0.05;0.05;;;13.60;99.90;;;;;;5046685;28;20109;-74
2022/05/29 10:55:16;;;;;;;0.30;0.30;;;13.80;99.90;;;;;;5046559;28;20116;-74
2022/05/29 10:58:19;;;;;;;0.00;0.00;;;13.80;99.90;;;;;;5043034;28;20036;-73
2022/05/29 11:04:57;;;;;;;12.80;0.95;;;13.60;99.90;;;;;;5049149;28;20067;-73
2022/05/29 11:08:20;;;;;;;0.00;0.00;;;13.60;99.90;;;;;;5047706;28;20024;-75
2022/05/29 11:10:56;;;;;;;0.00;0.00;;;13.60;99.90;;;;;;5051219;28;20123;-73
2022/05/29 11:13:42;;;;;;;0.00;0.00;;;13.40;99.90;;;;;;5054320;28;20037;-75
2022/05/29 11:16:22;;;;;;;0.00;0.00;;;13.50;99.90;;;;;;5042266;28;20478;-75
2022/05/29 11:19:08;;;;;;;0.00;0.00;;;13.60;99.90;;;;;;5047130;28;20028;-73
2022/05/29 11:22:18;;;;;;;0.00;0.00;;;13.60;99.90;;;;;;5034430;28;20045;-72
2022/05/29 11:25:40;;;;;;;0.00;0.00;;;13.60;99.90;;;;;;5048185;28;20028;-73
2022/05/29 11:28:41;;;;;;;0.10;0.10;;;13.90;99.90;;;;;;5051912;28;20091;-73
2022/05/29 11:31:42;;;;;;;0.38;0.38;;;13.90;99.90;;;;;;5049634;28;20025;-74
2022/05/29 11:34:53;;;;;;;0.00;0.00;;;13.80;99.90;;;;;;5051432;28;20040;-73
2022/05/29 11:37:41;;;;;;;0.75;0.75;;;13.90;99.90;;;;;;5043362;28;20036;-74
2022/05/29 11:40:36;;;;;;;0.00;0.00;;;14.10;99.90;;;;;;5040828;28;20104;-74
2022/05/29 11:43:24;;;;;;;0.03;0.03;;;14.20;99.90;;;;;;5044119;28;20039;-75
2022/05/29 11:52:35;;;;;;;2.28;0.47;;;14.30;99.90;;;;;;5078861;28;20042;-74
2022/05/29 11:55:20;;;;;;;0.00;0.00;;;14.00;99.90;;;;;;5075553;28;20043;-74
2022/05/29 11:58:32;;;;;;;0.00;0.00;;;14.00;99.90;;;;;;5084034;28;20082;-74
2022/05/29 12:01:23;;;;;;;0.40;0.40;;;14.10;99.90;;;;;;5077955;28;20457;-74
2022/05/29 12:04:10;;;;;;;0.00;0.00;;;14.20;99.90;;;;;;5081444;28;20032;-74
2022/05/29 12:06:58;;;;;;;1.67;0.30;;;14.20;99.90;;;;;;5081234;28;20016;-74
2022/05/29 12:09:47;;;;;;;0.00;0.00;;;14.30;99.90;;;;;;5091337;28;20024;-74
2022/05/29 12:12:44;;;;;;;0.00;0.00;;;14.30;99.90;;;;;;5086309;28;20028;-74
2022/05/29 12:15:31;;;;;;;0.25;0.25;;;14.40;99.90;;;;;;5088852;28;20129;-74
2022/05/29 12:18:03;;;;;;;0.00;0.00;;;14.30;99.90;;;;;;5084618;28;20153;-74
2022/05/29 12:20:59;;;;;;;0.00;0.00;;;14.20;99.90;;;;;;5082409;28;20021;-74
2022/05/29 12:23:32;;;;;;;0.10;0.10;;;14.10;99.90;;;;;;5084195;28;20181;-74
2022/05/29 12:26:00;;;;;;;0.00;0.00;;;13.90;99.90;;;;;;5084788;28;20280;-74
2022/05/29 12:29:23;;;;;;;0.00;0.00;;;13.90;99.90;;;;;;5089004;28;20069;-75
2022/05/29 12:32:07;;;;;;;0.00;0.00;;;14.00;99.90;;;;;;5024663;28;20056;-74
2022/05/29 12:34:52;;;;;;;0.00;0.00;;;14.00;99.90;;;;;;5086133;28;20476;-72
2022/05/29 12:37:26;;;;;;;0.00;0.00;;;14.00;99.90;;;;;;5083817;28;20035;-74
2022/05/29 12:40:07;;;;;;;2.63;2.45;;;14.10;99.90;;;;;;5086874;28;20020;-75
2022/05/29 12:43:14;;;;;;;0.00;0.00;;;14.20;99.90;;;;;;5084761;28;20020;-75
2022/05/29 12:45:59;;;;;;;0.00;0.00;;;14.20;99.90;;;;;;5086928;28;20429;-74
2022/05/29 12:48:52;;;;;;;0.57;0.57;;;14.30;99.90;;;;;;5085226;28;20027;-75
2022/05/29 12:51:57;;;;;;;0.00;0.00;;;14.30;99.90;;;;;;5080666;28;20553;-75
2022/05/29 12:55:00;;;;;;;2.35;2.15;;;14.30;99.90;;;;;;5010543;28;20478;-75
2022/05/29 12:57:44;;;;;;;0.40;0.40;;;14.30;99.90;;;;;;5008191;28;20113;-75
2022/05/29 13:00:38;;;;;;;0.00;0.00;;;14.40;99.90;;;;;;5081391;28;20059;-74
2022/05/29 13:03:23;;;;;;;0.00;0.00;;;14.30;99.90;;;;;;5090637;28;20035;-73
2022/05/29 13:06:22;;;;;;;0.00;0.00;;;14.00;99.90;;;;;;5087429;28;20024;-74
2022/05/29 13:09:39;;;;;;;0.00;0.00;;;14.00;99.90;;;;;;5088236;28;20059;-74
2022/05/29 13:12:37;;;;;;;0.00;0.00;;;13.90;99.90;;;;;;5084735;28;20028;-74
2022/05/29 13:15:23;;;;;;;0.00;0.00;;;13.80;99.90;;;;;;5086872;28;20032;-75
2022/05/29 13:18:16;;;;;;;0.00;0.00;;;14.10;99.90;;;;;;5087053;28;20017;-74
2022/05/29 13:21:15;;;;;;;0.05;0.05;;;14.10;99.90;;;;;;5081885;28;20024;-74
2022/05/29 13:23:54;;;;;;;0.00;0.00;;;14.10;99.90;;;;;;5055989;28;20507;-74
2022/05/29 13:26:24;;;;;;;0.03;0.03;;;13.90;99.90;;;;;;5093037;28;20054;-74
2022/05/29 13:29:01;;;;;;;0.03;0.03;;;13.90;99.90;;;;;;5086253;28;20028;-75
2022/05/29 13:32:10;;;;;;;0.00;0.00;;;13.80;99.90;;;;;;5085867;28;20412;-74
2022/05/29 13:34:46;;;;;;;0.00;0.00;;;13.70;99.90;;;;;;5055806;28;20044;-72
2022/05/29 13:37:49;;;;;;;0.00;0.00;;;13.60;99.90;;;;;;5085978;28;20047;-73
2022/05/29 13:40:31;;;;;;;0.22;0.22;;;13.40;99.90;;;;;;5095084;28;20095;-73
2022/05/29 13:43:42;;;;;;;0.00;0.00;;;13.30;99.90;;;;;;5095284;28;20032;-73
2022/05/29 13:46:23;;;;;;;0.00;0.00;;;13.30;99.90;;;;;;5013574;28;20022;-73
2022/05/29 13:49:27;;;;;;;0.00;0.00;;;13.20;99.90;;;;;;5011325;28;20037;-73
2022/05/29 13:52:15;;;;;;;0.10;0.10;;;13.30;99.90;;;;;;5048363;28;20040;-74
2022/05/29 13:55:07;;;;;;;0.00;0.00;;;13.30;99.90;;;;;;5094481;28;20047;-73
2022/05/29 14:04:00;;;;;;;0.00;0.00;;;13.30;99.90;;;;;;5092126;28;20038;-74
2022/05/29 14:06:34;;;;;;;0.43;0.43;;;13.40;99.90;;;;;;5093030;28;20415;-74
2022/05/29 14:09:03;;;;;;;0.00;0.00;;;13.20;99.90;;;;;;5093843;28;20085;-74
2022/05/29 14:11:54;;;;;;;1.23;1.23;;;13.30;99.90;;;;;;5091480;28;20058;-74
2022/05/29 14:14:37;;;;;;;0.00;0.00;;;13.30;99.90;;;;;;5092615;28;20068;-73